sensor_id;sensor_type;location;lat;lon;timestamp;P1;durP1;ratioP1;P2;durP2;ratioP2
19127;SDS011;9696;53.686;10.094;2023-05-07T00:00:10;7.73;;;5.17;;
19127;SDS011;9696;53.686;10.094;2023-05-07T00:02:42;10.73;;;6.63;;
19127;SDS011;9696;53.686;10.094;2023-05-07T00:05:12;10.07;;;6.23;;
19127;SDS011;9696;53.686;10.094;2023-05-07T00:07:41;10.43;;;5.90;;
19127;SDS011;9696;53.686;10.094;2023-05-07T00:10:10;8.27;;;5.33;;
19127;SDS011;9696;53.686;10.094;2023-05-07T00:12:40;10.73;;;6.33;;
19127;SDS011;9696;53.686;10.094;2023-05-07T00:15:11;12.27;;;6.67;;
19127;SDS011;9696;53.686;10.094;2023-05-07T00:17:40;10.43;;;6.90;;
19127;SDS011;9696;53.686;10.094;2023-05-07T00:20:09;10.90;;;6.23;;
19127;SDS011;9696;53.686;10.094;2023-05-07T00:22:39;8.00;;;5.80;;
19127;SDS011;9696;53.686;10.094;2023-05-07T00:25:08;8.40;;;5.80;;
19127;SDS011;9696;53.686;10.094;2023-05-07T00:27:38;10.57;;;5.50;;
19127;SDS011;9696;53.686;10.094;2023-05-07T00:30:07;9.77;;;5.83;;
19127;SDS011;9696;53.686;10.094;2023-05-07T00:32:39;9.67;;;5.70;;
19127;SDS011;9696;53.686;10.094;2023-05-07T00:35:08;13.03;;;6.17;;
19127;SDS011;9696;53.686;10.094;2023-05-07T00:37:38;8.47;;;5.97;;
19127;SDS011;9696;53.686;10.094;2023-05-07T00:40:07;11.77;;;6.60;;
19127;SDS011;9696;53.686;10.094;2023-05-07T00:42:37;9.93;;;5.90;;
19127;SDS011;9696;53.686;10.094;2023-05-07T00:45:07;13.00;;;6.33;;
19127;SDS011;9696;53.686;10.094;2023-05-07T00:47:39;11.50;;;5.63;;
19127;SDS011;9696;53.686;10.094;2023-05-07T00:50:08;9.47;;;5.87;;
19127;SDS011;9696;53.686;10.094;2023-05-07T00:52:39;11.57;;;5.93;;
19127;SDS011;9696;53.686;10.094;2023-05-07T00:55:09;10.50;;;6.07;;
19127;SDS011;9696;53.686;10.094;2023-05-07T00:57:40;8.20;;;5.50;;
19127;SDS011;9696;53.686;10.094;2023-05-07T01:00:10;9.30;;;5.53;;
19127;SDS011;9696;53.686;10.094;2023-05-07T01:02:42;10.37;;;6.10;;
19127;SDS011;9696;53.686;10.094;2023-05-07T01:05:12;11.57;;;5.77;;
19127;SDS011;9696;53.686;10.094;2023-05-07T01:07:44;10.23;;;6.17;;
19127;SDS011;9696;53.686;10.094;2023-05-07T01:10:15;13.10;;;7.10;;
19127;SDS011;9696;53.686;10.094;2023-05-07T01:12:45;10.00;;;5.77;;
19127;SDS011;9696;53.686;10.094;2023-05-07T01:15:16;8.63;;;6.30;;
19127;SDS011;9696;53.686;10.094;2023-05-07T01:17:47;15.03;;;6.33;;
19127;SDS011;9696;53.686;10.094;2023-05-07T01:20:26;10.90;;;6.10;;
19127;SDS011;9696;53.686;10.094;2023-05-07T01:22:57;13.07;;;6.00;;
19127;SDS011;9696;53.686;10.094;2023-05-07T01:25:28;11.83;;;5.93;;
19127;SDS011;9696;53.686;10.094;2023-05-07T01:28:00;9.80;;;6.07;;
19127;SDS011;9696;53.686;10.094;2023-05-07T01:30:33;9.90;;;5.93;;
19127;SDS011;9696;53.686;10.094;2023-05-07T01:33:08;10.73;;;5.67;;
19127;SDS011;9696;53.686;10.094;2023-05-07T01:35:41;12.50;;;7.07;;
19127;SDS011;9696;53.686;10.094;2023-05-07T01:38:14;10.13;;;6.40;;
19127;SDS011;9696;53.686;10.094;2023-05-07T01:40:44;10.57;;;6.20;;
19127;SDS011;9696;53.686;10.094;2023-05-07T01:43:13;11.03;;;6.57;;
19127;SDS011;9696;53.686;10.094;2023-05-07T01:45:42;13.00;;;6.13;;
19127;SDS011;9696;53.686;10.094;2023-05-07T01:48:12;12.07;;;6.77;;
19127;SDS011;9696;53.686;10.094;2023-05-07T01:50:43;10.70;;;6.23;;
19127;SDS011;9696;53.686;10.094;2023-05-07T01:53:12;10.53;;;6.50;;
19127;SDS011;9696;53.686;10.094;2023-05-07T01:55:43;8.17;;;5.67;;
19127;SDS011;9696;53.686;10.094;2023-05-07T01:58:12;8.10;;;5.23;;
19127;SDS011;9696;53.686;10.094;2023-05-07T02:00:41;9.43;;;5.67;;
19127;SDS011;9696;53.686;10.094;2023-05-07T02:03:11;12.60;;;6.43;;
19127;SDS011;9696;53.686;10.094;2023-05-07T02:05:51;10.17;;;5.70;;
19127;SDS011;9696;53.686;10.094;2023-05-07T02:08:29;11.37;;;5.70;;
19127;SDS011;9696;53.686;10.094;2023-05-07T02:10:59;11.00;;;6.13;;
19127;SDS011;9696;53.686;10.094;2023-05-07T02:13:32;10.57;;;6.20;;
19127;SDS011;9696;53.686;10.094;2023-05-07T02:16:03;9.73;;;5.67;;
19127;SDS011;9696;53.686;10.094;2023-05-07T02:18:32;9.97;;;5.47;;
19127;SDS011;9696;53.686;10.094;2023-05-07T02:21:02;10.93;;;5.83;;
19127;SDS011;9696;53.686;10.094;2023-05-07T02:23:33;8.37;;;5.13;;
19127;SDS011;9696;53.686;10.094;2023-05-07T02:26:03;9.67;;;6.03;;
19127;SDS011;9696;53.686;10.094;2023-05-07T02:28:32;10.83;;;5.97;;
19127;SDS011;9696;53.686;10.094;2023-05-07T02:31:04;10.10;;;6.47;;
19127;SDS011;9696;53.686;10.094;2023-05-07T02:33:34;10.63;;;6.33;;
19127;SDS011;9696;53.686;10.094;2023-05-07T02:36:06;8.03;;;5.40;;
19127;SDS011;9696;53.686;10.094;2023-05-07T02:38:43;7.60;;;5.00;;
19127;SDS011;9696;53.686;10.094;2023-05-07T02:41:13;11.13;;;6.57;;
19127;SDS011;9696;53.686;10.094;2023-05-07T02:43:42;10.63;;;6.07;;
19127;SDS011;9696;53.686;10.094;2023-05-07T02:46:11;10.53;;;6.37;;
19127;SDS011;9696;53.686;10.094;2023-05-07T02:48:45;9.10;;;6.10;;
19127;SDS011;9696;53.686;10.094;2023-05-07T02:51:14;12.33;;;6.77;;
19127;SDS011;9696;53.686;10.094;2023-05-07T02:53:47;12.13;;;6.53;;
19127;SDS011;9696;53.686;10.094;2023-05-07T02:56:16;11.40;;;6.23;;
19127;SDS011;9696;53.686;10.094;2023-05-07T02:58:45;10.17;;;6.10;;
19127;SDS011;9696;53.686;10.094;2023-05-07T03:01:15;11.83;;;6.63;;
19127;SDS011;9696;53.686;10.094;2023-05-07T03:03:57;11.53;;;6.50;;
19127;SDS011;9696;53.686;10.094;2023-05-07T03:06:26;9.87;;;5.77;;
19127;SDS011;9696;53.686;10.094;2023-05-07T03:08:57;9.27;;;5.63;;
19127;SDS011;9696;53.686;10.094;2023-05-07T03:11:26;10.37;;;7.10;;
19127;SDS011;9696;53.686;10.094;2023-05-07T03:13:55;11.73;;;7.07;;
19127;SDS011;9696;53.686;10.094;2023-05-07T03:16:25;11.17;;;6.17;;
19127;SDS011;9696;53.686;10.094;2023-05-07T03:18:54;9.60;;;5.93;;
19127;SDS011;9696;53.686;10.094;2023-05-07T03:21:23;10.27;;;6.53;;
19127;SDS011;9696;53.686;10.094;2023-05-07T03:23:53;9.73;;;6.17;;
19127;SDS011;9696;53.686;10.094;2023-05-07T03:26:24;11.33;;;6.67;;
19127;SDS011;9696;53.686;10.094;2023-05-07T03:28:53;12.13;;;6.40;;
19127;SDS011;9696;53.686;10.094;2023-05-07T03:31:23;7.03;;;4.93;;
19127;SDS011;9696;53.686;10.094;2023-05-07T03:33:52;10.13;;;5.43;;
19127;SDS011;9696;53.686;10.094;2023-05-07T03:36:23;10.10;;;6.00;;
19127;SDS011;9696;53.686;10.094;2023-05-07T03:38:54;11.00;;;5.90;;
19127;SDS011;9696;53.686;10.094;2023-05-07T03:41:27;9.83;;;6.20;;
19127;SDS011;9696;53.686;10.094;2023-05-07T03:43:57;9.30;;;5.50;;
19127;SDS011;9696;53.686;10.094;2023-05-07T03:46:26;6.60;;;4.90;;
19127;SDS011;9696;53.686;10.094;2023-05-07T03:48:55;8.70;;;5.53;;
19127;SDS011;9696;53.686;10.094;2023-05-07T03:51:25;7.80;;;5.37;;
19127;SDS011;9696;53.686;10.094;2023-05-07T03:53:54;8.20;;;5.20;;
19127;SDS011;9696;53.686;10.094;2023-05-07T03:56:25;10.43;;;5.80;;
19127;SDS011;9696;53.686;10.094;2023-05-07T03:58:57;7.90;;;5.33;;
19127;SDS011;9696;53.686;10.094;2023-05-07T04:01:26;10.47;;;5.23;;
19127;SDS011;9696;53.686;10.094;2023-05-07T04:03:56;9.27;;;5.23;;
19127;SDS011;9696;53.686;10.094;2023-05-07T04:06:26;9.53;;;5.60;;
19127;SDS011;9696;53.686;10.094;2023-05-07T04:08:55;10.50;;;5.47;;
19127;SDS011;9696;53.686;10.094;2023-05-07T04:11:24;10.97;;;5.70;;
19127;SDS011;9696;53.686;10.094;2023-05-07T04:13:56;10.00;;;5.37;;
19127;SDS011;9696;53.686;10.094;2023-05-07T04:16:25;9.03;;;5.17;;
19127;SDS011;9696;53.686;10.094;2023-05-07T04:18:54;9.43;;;5.47;;
19127;SDS011;9696;53.686;10.094;2023-05-07T04:21:23;9.40;;;5.40;;
19127;SDS011;9696;53.686;10.094;2023-05-07T04:23:53;8.97;;;5.40;;
19127;SDS011;9696;53.686;10.094;2023-05-07T04:26:24;9.23;;;4.97;;
19127;SDS011;9696;53.686;10.094;2023-05-07T04:28:53;9.57;;;5.63;;
19127;SDS011;9696;53.686;10.094;2023-05-07T04:31:24;8.90;;;5.57;;
19127;SDS011;9696;53.686;10.094;2023-05-07T04:33:54;8.00;;;5.07;;
19127;SDS011;9696;53.686;10.094;2023-05-07T04:36:24;9.50;;;5.20;;
19127;SDS011;9696;53.686;10.094;2023-05-07T04:38:59;8.83;;;4.73;;
19127;SDS011;9696;53.686;10.094;2023-05-07T04:41:28;10.13;;;5.73;;
19127;SDS011;9696;53.686;10.094;2023-05-07T04:43:59;11.03;;;5.70;;
19127;SDS011;9696;53.686;10.094;2023-05-07T04:46:30;7.67;;;4.90;;
19127;SDS011;9696;53.686;10.094;2023-05-07T04:48:59;8.73;;;5.50;;
19127;SDS011;9696;53.686;10.094;2023-05-07T04:51:28;6.80;;;4.63;;
19127;SDS011;9696;53.686;10.094;2023-05-07T04:53:59;8.43;;;4.67;;
19127;SDS011;9696;53.686;10.094;2023-05-07T04:56:30;8.23;;;4.63;;
19127;SDS011;9696;53.686;10.094;2023-05-07T04:59:01;13.90;;;4.80;;
19127;SDS011;9696;53.686;10.094;2023-05-07T05:01:30;8.73;;;4.60;;
19127;SDS011;9696;53.686;10.094;2023-05-07T05:04:00;7.57;;;4.27;;
19127;SDS011;9696;53.686;10.094;2023-05-07T05:06:29;6.13;;;4.13;;
19127;SDS011;9696;53.686;10.094;2023-05-07T05:09:00;7.00;;;4.57;;
19127;SDS011;9696;53.686;10.094;2023-05-07T05:11:32;5.23;;;3.67;;
19127;SDS011;9696;53.686;10.094;2023-05-07T05:14:03;8.13;;;4.63;;
19127;SDS011;9696;53.686;10.094;2023-05-07T05:16:32;8.10;;;5.03;;
19127;SDS011;9696;53.686;10.094;2023-05-07T05:19:01;6.20;;;4.17;;
19127;SDS011;9696;53.686;10.094;2023-05-07T05:21:34;5.73;;;3.90;;
19127;SDS011;9696;53.686;10.094;2023-05-07T05:24:07;8.07;;;4.27;;
19127;SDS011;9696;53.686;10.094;2023-05-07T05:26:36;6.73;;;4.60;;
19127;SDS011;9696;53.686;10.094;2023-05-07T05:29:07;6.30;;;4.30;;
19127;SDS011;9696;53.686;10.094;2023-05-07T05:31:40;9.17;;;4.67;;
19127;SDS011;9696;53.686;10.094;2023-05-07T05:34:10;7.40;;;4.17;;
19127;SDS011;9696;53.686;10.094;2023-05-07T05:36:39;10.17;;;5.00;;
19127;SDS011;9696;53.686;10.094;2023-05-07T05:39:09;8.73;;;4.07;;
19127;SDS011;9696;53.686;10.094;2023-05-07T05:41:38;6.17;;;4.40;;
19127;SDS011;9696;53.686;10.094;2023-05-07T05:44:09;7.83;;;4.73;;
19127;SDS011;9696;53.686;10.094;2023-05-07T05:46:39;6.97;;;4.47;;
19127;SDS011;9696;53.686;10.094;2023-05-07T05:49:09;9.23;;;5.03;;
19127;SDS011;9696;53.686;10.094;2023-05-07T05:51:39;6.07;;;4.13;;
19127;SDS011;9696;53.686;10.094;2023-05-07T05:54:08;6.77;;;4.80;;
19127;SDS011;9696;53.686;10.094;2023-05-07T05:56:37;6.77;;;4.60;;
19127;SDS011;9696;53.686;10.094;2023-05-07T05:59:08;6.37;;;4.63;;
19127;SDS011;9696;53.686;10.094;2023-05-07T06:01:38;10.67;;;5.03;;
19127;SDS011;9696;53.686;10.094;2023-05-07T06:04:07;9.53;;;5.13;;
19127;SDS011;9696;53.686;10.094;2023-05-07T06:06:36;6.47;;;4.00;;
19127;SDS011;9696;53.686;10.094;2023-05-07T06:09:06;6.77;;;4.37;;
19127;SDS011;9696;53.686;10.094;2023-05-07T06:11:40;8.00;;;4.23;;
19127;SDS011;9696;53.686;10.094;2023-05-07T06:14:12;6.17;;;4.47;;
19127;SDS011;9696;53.686;10.094;2023-05-07T06:16:41;6.80;;;4.60;;
19127;SDS011;9696;53.686;10.094;2023-05-07T06:19:10;6.73;;;4.27;;
19127;SDS011;9696;53.686;10.094;2023-05-07T06:21:40;5.90;;;4.00;;
19127;SDS011;9696;53.686;10.094;2023-05-07T06:24:10;7.63;;;4.50;;
19127;SDS011;9696;53.686;10.094;2023-05-07T06:26:39;6.13;;;4.10;;
19127;SDS011;9696;53.686;10.094;2023-05-07T06:29:08;4.70;;;3.80;;
19127;SDS011;9696;53.686;10.094;2023-05-07T06:31:41;5.83;;;3.80;;
19127;SDS011;9696;53.686;10.094;2023-05-07T06:34:11;7.40;;;4.20;;
19127;SDS011;9696;53.686;10.094;2023-05-07T06:36:42;5.73;;;4.03;;
19127;SDS011;9696;53.686;10.094;2023-05-07T06:39:21;10.43;;;4.30;;
19127;SDS011;9696;53.686;10.094;2023-05-07T06:41:51;5.47;;;3.57;;
19127;SDS011;9696;53.686;10.094;2023-05-07T06:44:27;8.87;;;3.57;;
19127;SDS011;9696;53.686;10.094;2023-05-07T06:47:18;5.90;;;3.63;;
19127;SDS011;9696;53.686;10.094;2023-05-07T06:49:51;6.57;;;4.43;;
19127;SDS011;9696;53.686;10.094;2023-05-07T06:52:23;6.03;;;3.60;;
19127;SDS011;9696;53.686;10.094;2023-05-07T06:54:54;5.53;;;3.93;;
19127;SDS011;9696;53.686;10.094;2023-05-07T06:57:25;5.00;;;3.93;;
19127;SDS011;9696;53.686;10.094;2023-05-07T06:59:54;6.60;;;3.87;;
19127;SDS011;9696;53.686;10.094;2023-05-07T07:02:24;5.10;;;3.40;;
19127;SDS011;9696;53.686;10.094;2023-05-07T07:04:54;5.30;;;3.37;;
19127;SDS011;9696;53.686;10.094;2023-05-07T07:07:23;5.07;;;3.40;;
19127;SDS011;9696;53.686;10.094;2023-05-07T07:09:53;7.93;;;3.60;;
19127;SDS011;9696;53.686;10.094;2023-05-07T07:12:22;4.53;;;2.87;;
19127;SDS011;9696;53.686;10.094;2023-05-07T07:14:52;5.13;;;3.20;;
19127;SDS011;9696;53.686;10.094;2023-05-07T07:17:22;4.20;;;2.87;;
19127;SDS011;9696;53.686;10.094;2023-05-07T07:19:54;5.70;;;3.63;;
19127;SDS011;9696;53.686;10.094;2023-05-07T07:22:23;3.97;;;2.80;;
19127;SDS011;9696;53.686;10.094;2023-05-07T07:24:53;4.20;;;3.03;;
19127;SDS011;9696;53.686;10.094;2023-05-07T07:27:23;11.90;;;3.50;;
19127;SDS011;9696;53.686;10.094;2023-05-07T07:29:52;5.07;;;2.90;;
19127;SDS011;9696;53.686;10.094;2023-05-07T07:32:21;3.93;;;2.83;;
19127;SDS011;9696;53.686;10.094;2023-05-07T07:34:52;4.10;;;2.53;;
19127;SDS011;9696;53.686;10.094;2023-05-07T07:37:21;5.60;;;3.53;;
19127;SDS011;9696;53.686;10.094;2023-05-07T07:39:52;5.20;;;3.50;;
19127;SDS011;9696;53.686;10.094;2023-05-07T07:42:22;4.40;;;3.30;;
19127;SDS011;9696;53.686;10.094;2023-05-07T07:44:52;4.30;;;3.03;;
19127;SDS011;9696;53.686;10.094;2023-05-07T07:47:23;4.47;;;3.30;;
19127;SDS011;9696;53.686;10.094;2023-05-07T07:49:54;4.93;;;3.60;;
19127;SDS011;9696;53.686;10.094;2023-05-07T07:52:23;5.70;;;3.50;;
19127;SDS011;9696;53.686;10.094;2023-05-07T07:54:52;4.70;;;3.03;;
19127;SDS011;9696;53.686;10.094;2023-05-07T07:57:22;5.03;;;2.87;;
19127;SDS011;9696;53.686;10.094;2023-05-07T07:59:51;5.10;;;3.30;;
19127;SDS011;9696;53.686;10.094;2023-05-07T08:02:21;5.63;;;3.27;;
19127;SDS011;9696;53.686;10.094;2023-05-07T08:04:50;3.47;;;2.60;;
19127;SDS011;9696;53.686;10.094;2023-05-07T08:07:21;7.10;;;3.23;;
19127;SDS011;9696;53.686;10.094;2023-05-07T08:09:50;4.73;;;3.07;;
19127;SDS011;9696;53.686;10.094;2023-05-07T08:12:22;3.77;;;2.93;;
19127;SDS011;9696;53.686;10.094;2023-05-07T08:14:51;5.93;;;2.57;;
19127;SDS011;9696;53.686;10.094;2023-05-07T08:17:21;4.30;;;3.00;;
19127;SDS011;9696;53.686;10.094;2023-05-07T08:19:50;3.70;;;2.57;;
19127;SDS011;9696;53.686;10.094;2023-05-07T08:22:21;5.20;;;2.80;;
19127;SDS011;9696;53.686;10.094;2023-05-07T08:24:50;4.27;;;2.87;;
19127;SDS011;9696;53.686;10.094;2023-05-07T08:27:20;5.00;;;2.70;;
19127;SDS011;9696;53.686;10.094;2023-05-07T08:29:50;3.40;;;2.23;;
19127;SDS011;9696;53.686;10.094;2023-05-07T08:32:20;3.60;;;2.23;;
19127;SDS011;9696;53.686;10.094;2023-05-07T08:34:50;4.30;;;2.30;;
19127;SDS011;9696;53.686;10.094;2023-05-07T08:37:20;4.47;;;2.43;;
19127;SDS011;9696;53.686;10.094;2023-05-07T08:39:50;5.00;;;2.80;;
19127;SDS011;9696;53.686;10.094;2023-05-07T08:42:22;3.80;;;2.50;;
19127;SDS011;9696;53.686;10.094;2023-05-07T08:44:52;3.72;;;2.83;;
19127;SDS011;9696;53.686;10.094;2023-05-07T08:47:29;5.33;;;2.53;;
19127;SDS011;9696;53.686;10.094;2023-05-07T08:50:03;3.07;;;2.47;;
19127;SDS011;9696;53.686;10.094;2023-05-07T08:52:36;9.37;;;3.30;;
19127;SDS011;9696;53.686;10.094;2023-05-07T08:55:08;6.63;;;2.37;;
19127;SDS011;9696;53.686;10.094;2023-05-07T08:57:38;3.67;;;3.00;;
19127;SDS011;9696;53.686;10.094;2023-05-07T09:00:09;3.87;;;2.33;;
19127;SDS011;9696;53.686;10.094;2023-05-07T09:02:41;5.17;;;3.17;;
19127;SDS011;9696;53.686;10.094;2023-05-07T09:05:10;4.15;;;2.85;;
19127;SDS011;9696;53.686;10.094;2023-05-07T09:07:41;5.20;;;2.87;;
19127;SDS011;9696;53.686;10.094;2023-05-07T09:10:13;5.77;;;2.73;;
19127;SDS011;9696;53.686;10.094;2023-05-07T09:12:46;3.37;;;2.43;;
19127;SDS011;9696;53.686;10.094;2023-05-07T09:15:17;4.93;;;2.63;;
19127;SDS011;9696;53.686;10.094;2023-05-07T09:17:46;4.90;;;2.97;;
19127;SDS011;9696;53.686;10.094;2023-05-07T09:20:16;3.35;;;2.70;;
19127;SDS011;9696;53.686;10.094;2023-05-07T09:22:46;2.95;;;2.60;;
19127;SDS011;9696;53.686;10.094;2023-05-07T09:25:22;3.03;;;2.27;;
19127;SDS011;9696;53.686;10.094;2023-05-07T09:27:58;6.40;;;3.30;;
19127;SDS011;9696;53.686;10.094;2023-05-07T09:30:29;5.60;;;2.50;;
19127;SDS011;9696;53.686;10.094;2023-05-07T09:33:00;3.83;;;2.57;;
19127;SDS011;9696;53.686;10.094;2023-05-07T09:35:33;3.37;;;2.47;;
19127;SDS011;9696;53.686;10.094;2023-05-07T09:38:09;6.60;;;2.60;;
19127;SDS011;9696;53.686;10.094;2023-05-07T09:40:38;3.65;;;2.55;;
19127;SDS011;9696;53.686;10.094;2023-05-07T09:43:13;4.32;;;2.55;;
19127;SDS011;9696;53.686;10.094;2023-05-07T09:45:49;4.27;;;2.20;;
19127;SDS011;9696;53.686;10.094;2023-05-07T09:48:21;2.75;;;2.17;;
19127;SDS011;9696;53.686;10.094;2023-05-07T09:50:55;3.37;;;2.47;;
19127;SDS011;9696;53.686;10.094;2023-05-07T09:53:30;3.90;;;2.20;;
19127;SDS011;9696;53.686;10.094;2023-05-07T09:56:03;5.97;;;2.47;;
19127;SDS011;9696;53.686;10.094;2023-05-07T09:58:34;7.73;;;2.30;;
19127;SDS011;9696;53.686;10.094;2023-05-07T10:01:07;4.82;;;2.30;;
19127;SDS011;9696;53.686;10.094;2023-05-07T10:03:41;4.15;;;2.65;;
19127;SDS011;9696;53.686;10.094;2023-05-07T10:06:11;4.15;;;2.42;;
19127;SDS011;9696;53.686;10.094;2023-05-07T10:08:42;7.07;;;2.50;;
19127;SDS011;9696;53.686;10.094;2023-05-07T10:11:12;3.65;;;2.25;;
19127;SDS011;9696;53.686;10.094;2023-05-07T10:13:42;3.25;;;2.40;;
19127;SDS011;9696;53.686;10.094;2023-05-07T10:16:12;4.38;;;2.63;;
19127;SDS011;9696;53.686;10.094;2023-05-07T10:18:46;3.28;;;2.28;;
19127;SDS011;9696;53.686;10.094;2023-05-07T10:21:19;4.07;;;2.00;;
19127;SDS011;9696;53.686;10.094;2023-05-07T10:23:57;3.33;;;2.60;;
19127;SDS011;9696;53.686;10.094;2023-05-07T10:26:31;4.00;;;2.63;;
19127;SDS011;9696;53.686;10.094;2023-05-07T10:29:03;3.17;;;1.90;;
19127;SDS011;9696;53.686;10.094;2023-05-07T10:31:44;2.47;;;2.10;;
19127;SDS011;9696;53.686;10.094;2023-05-07T10:34:21;6.05;;;2.15;;
19127;SDS011;9696;53.686;10.094;2023-05-07T10:36:54;3.78;;;2.10;;
19127;SDS011;9696;53.686;10.094;2023-05-07T10:39:26;3.10;;;1.80;;
19127;SDS011;9696;53.686;10.094;2023-05-07T10:41:56;6.47;;;2.05;;
19127;SDS011;9696;53.686;10.094;2023-05-07T10:44:35;2.60;;;1.95;;
19127;SDS011;9696;53.686;10.094;2023-05-07T10:47:09;3.05;;;2.25;;
19127;SDS011;9696;53.686;10.094;2023-05-07T11:02:21;2.60;;;1.80;;
19127;SDS011;9696;53.686;10.094;2023-05-07T11:07:56;4.03;;;1.70;;
19127;SDS011;9696;53.686;10.094;2023-05-07T11:10:48;2.63;;;1.80;;
19127;SDS011;9696;53.686;10.094;2023-05-07T11:13:42;2.95;;;1.52;;
19127;SDS011;9696;53.686;10.094;2023-05-07T11:16:35;5.38;;;2.03;;
19127;SDS011;9696;53.686;10.094;2023-05-07T11:22:36;2.85;;;1.83;;
19127;SDS011;9696;53.686;10.094;2023-05-07T11:25:19;2.83;;;1.85;;
19127;SDS011;9696;53.686;10.094;2023-05-07T11:27:55;3.97;;;1.60;;
19127;SDS011;9696;53.686;10.094;2023-05-07T11:30:33;2.53;;;1.60;;
19127;SDS011;9696;53.686;10.094;2023-05-07T11:33:05;4.43;;;1.50;;
19127;SDS011;9696;53.686;10.094;2023-05-07T11:35:34;3.03;;;1.75;;
19127;SDS011;9696;53.686;10.094;2023-05-07T11:38:07;4.93;;;2.00;;
19127;SDS011;9696;53.686;10.094;2023-05-07T11:40:48;7.45;;;1.65;;
19127;SDS011;9696;53.686;10.094;2023-05-07T11:43:17;2.20;;;1.70;;
19127;SDS011;9696;53.686;10.094;2023-05-07T11:45:48;1.80;;;1.38;;
19127;SDS011;9696;53.686;10.094;2023-05-07T11:48:18;1.42;;;1.33;;
19127;SDS011;9696;53.686;10.094;2023-05-07T11:50:52;2.83;;;1.60;;
19127;SDS011;9696;53.686;10.094;2023-05-07T11:53:24;1.98;;;1.23;;
19127;SDS011;9696;53.686;10.094;2023-05-07T11:55:54;2.97;;;1.50;;
19127;SDS011;9696;53.686;10.094;2023-05-07T11:58:24;1.58;;;1.10;;
19127;SDS011;9696;53.686;10.094;2023-05-07T12:00:55;1.77;;;1.20;;
19127;SDS011;9696;53.686;10.094;2023-05-07T12:03:24;1.85;;;1.20;;
19127;SDS011;9696;53.686;10.094;2023-05-07T12:05:57;3.58;;;1.27;;
19127;SDS011;9696;53.686;10.094;2023-05-07T12:08:27;2.75;;;1.55;;
19127;SDS011;9696;53.686;10.094;2023-05-07T12:10:56;2.08;;;1.52;;
19127;SDS011;9696;53.686;10.094;2023-05-07T12:13:26;3.58;;;1.30;;
19127;SDS011;9696;53.686;10.094;2023-05-07T12:15:56;6.03;;;1.48;;
19127;SDS011;9696;53.686;10.094;2023-05-07T12:18:26;2.67;;;1.20;;
19127;SDS011;9696;53.686;10.094;2023-05-07T12:20:55;2.25;;;1.40;;
19127;SDS011;9696;53.686;10.094;2023-05-07T12:23:25;1.17;;;1.10;;
19127;SDS011;9696;53.686;10.094;2023-05-07T12:25:54;1.50;;;1.40;;
19127;SDS011;9696;53.686;10.094;2023-05-07T12:28:24;2.15;;;1.45;;
19127;SDS011;9696;53.686;10.094;2023-05-07T12:30:53;1.30;;;1.15;;
19127;SDS011;9696;53.686;10.094;2023-05-07T12:33:25;1.90;;;1.10;;
19127;SDS011;9696;53.686;10.094;2023-05-07T12:35:55;2.42;;;1.30;;
19127;SDS011;9696;53.686;10.094;2023-05-07T12:38:24;0.77;;;0.77;;
19127;SDS011;9696;53.686;10.094;2023-05-07T12:40:54;1.52;;;1.10;;
19127;SDS011;9696;53.686;10.094;2023-05-07T12:43:24;6.80;;;1.20;;
19127;SDS011;9696;53.686;10.094;2023-05-07T12:45:54;1.63;;;1.20;;
19127;SDS011;9696;53.686;10.094;2023-05-07T12:48:26;1.77;;;1.13;;
19127;SDS011;9696;53.686;10.094;2023-05-07T12:50:55;1.83;;;1.30;;
19127;SDS011;9696;53.686;10.094;2023-05-07T12:53:26;1.85;;;1.23;;
19127;SDS011;9696;53.686;10.094;2023-05-07T12:55:56;1.38;;;1.10;;
19127;SDS011;9696;53.686;10.094;2023-05-07T12:58:27;2.03;;;1.13;;
19127;SDS011;9696;53.686;10.094;2023-05-07T13:00:58;1.80;;;1.40;;
19127;SDS011;9696;53.686;10.094;2023-05-07T13:03:30;1.67;;;1.20;;
19127;SDS011;9696;53.686;10.094;2023-05-07T13:06:01;1.98;;;1.10;;
19127;SDS011;9696;53.686;10.094;2023-05-07T13:08:33;3.28;;;1.30;;
19127;SDS011;9696;53.686;10.094;2023-05-07T13:11:04;1.23;;;1.00;;
19127;SDS011;9696;53.686;10.094;2023-05-07T13:13:35;1.13;;;1.02;;
19127;SDS011;9696;53.686;10.094;2023-05-07T13:16:06;1.10;;;0.95;;
19127;SDS011;9696;53.686;10.094;2023-05-07T13:18:38;2.97;;;1.20;;
19127;SDS011;9696;53.686;10.094;2023-05-07T13:21:10;2.85;;;1.20;;
19127;SDS011;9696;53.686;10.094;2023-05-07T13:23:40;1.85;;;1.00;;
19127;SDS011;9696;53.686;10.094;2023-05-07T13:26:10;3.33;;;0.93;;
19127;SDS011;9696;53.686;10.094;2023-05-07T13:28:52;1.35;;;0.90;;
19127;SDS011;9696;53.686;10.094;2023-05-07T13:31:21;1.17;;;1.00;;
19127;SDS011;9696;53.686;10.094;2023-05-07T13:33:52;0.98;;;0.80;;
19127;SDS011;9696;53.686;10.094;2023-05-07T13:36:23;3.47;;;1.17;;
19127;SDS011;9696;53.686;10.094;2023-05-07T13:38:52;1.25;;;0.90;;
19127;SDS011;9696;53.686;10.094;2023-05-07T13:41:22;1.38;;;1.20;;
19127;SDS011;9696;53.686;10.094;2023-05-07T13:43:55;4.03;;;0.90;;
19127;SDS011;9696;53.686;10.094;2023-05-07T13:46:25;1.55;;;1.02;;
19127;SDS011;9696;53.686;10.094;2023-05-07T13:48:59;2.97;;;1.10;;
19127;SDS011;9696;53.686;10.094;2023-05-07T13:51:29;2.35;;;0.93;;
19127;SDS011;9696;53.686;10.094;2023-05-07T13:53:59;4.07;;;0.70;;
19127;SDS011;9696;53.686;10.094;2023-05-07T13:56:28;1.15;;;0.73;;
19127;SDS011;9696;53.686;10.094;2023-05-07T13:58:59;1.38;;;0.80;;
19127;SDS011;9696;53.686;10.094;2023-05-07T14:01:30;1.15;;;0.70;;
19127;SDS011;9696;53.686;10.094;2023-05-07T14:04:03;1.15;;;0.80;;
19127;SDS011;9696;53.686;10.094;2023-05-07T14:06:36;2.95;;;0.88;;
19127;SDS011;9696;53.686;10.094;2023-05-07T14:09:05;1.85;;;1.02;;
19127;SDS011;9696;53.686;10.094;2023-05-07T14:11:34;0.80;;;0.80;;
19127;SDS011;9696;53.686;10.094;2023-05-07T14:14:04;2.15;;;1.10;;
19127;SDS011;9696;53.686;10.094;2023-05-07T14:16:33;0.93;;;0.80;;
19127;SDS011;9696;53.686;10.094;2023-05-07T14:19:04;0.98;;;0.75;;
19127;SDS011;9696;53.686;10.094;2023-05-07T14:21:33;2.70;;;0.77;;
19127;SDS011;9696;53.686;10.094;2023-05-07T14:24:02;1.65;;;0.90;;
19127;SDS011;9696;53.686;10.094;2023-05-07T14:26:32;1.80;;;0.88;;
19127;SDS011;9696;53.686;10.094;2023-05-07T14:29:01;0.88;;;0.80;;
19127;SDS011;9696;53.686;10.094;2023-05-07T14:31:30;1.38;;;0.90;;
19127;SDS011;9696;53.686;10.094;2023-05-07T14:34:00;1.38;;;0.80;;
19127;SDS011;9696;53.686;10.094;2023-05-07T14:36:30;0.65;;;0.65;;
19127;SDS011;9696;53.686;10.094;2023-05-07T14:38:59;1.00;;;0.90;;
19127;SDS011;9696;53.686;10.094;2023-05-07T14:41:29;0.70;;;0.70;;
19127;SDS011;9696;53.686;10.094;2023-05-07T14:43:59;4.85;;;1.08;;
19127;SDS011;9696;53.686;10.094;2023-05-07T14:46:30;2.22;;;0.90;;
19127;SDS011;9696;53.686;10.094;2023-05-07T14:48:59;1.33;;;0.90;;
19127;SDS011;9696;53.686;10.094;2023-05-07T14:51:31;3.55;;;0.98;;
19127;SDS011;9696;53.686;10.094;2023-05-07T14:54:00;1.08;;;0.90;;
19127;SDS011;9696;53.686;10.094;2023-05-07T14:56:30;2.50;;;0.90;;
19127;SDS011;9696;53.686;10.094;2023-05-07T14:58:59;1.08;;;0.80;;
19127;SDS011;9696;53.686;10.094;2023-05-07T15:01:28;1.65;;;1.10;;
19127;SDS011;9696;53.686;10.094;2023-05-07T15:03:57;2.08;;;1.20;;
19127;SDS011;9696;53.686;10.094;2023-05-07T15:06:27;1.42;;;0.98;;
19127;SDS011;9696;53.686;10.094;2023-05-07T15:08:58;1.63;;;1.00;;
19127;SDS011;9696;53.686;10.094;2023-05-07T15:11:27;8.98;;;1.17;;
19127;SDS011;9696;53.686;10.094;2023-05-07T15:13:56;4.20;;;0.95;;
19127;SDS011;9696;53.686;10.094;2023-05-07T15:16:25;1.25;;;1.13;;
19127;SDS011;9696;53.686;10.094;2023-05-07T15:18:55;2.35;;;0.90;;
19127;SDS011;9696;53.686;10.094;2023-05-07T15:21:24;4.68;;;1.20;;
19127;SDS011;9696;53.686;10.094;2023-05-07T15:23:54;4.45;;;1.20;;
19127;SDS011;9696;53.686;10.094;2023-05-07T15:26:25;1.65;;;1.10;;